sensor_id;sensor_type;location;lat;lon;timestamp;P1;durP1;ratioP1;P2;durP2;ratioP2
5821;SDS011;2937;48.562;8.022;2023-04-30T00:01:49;20.47;;;14.90;;
5821;SDS011;2937;48.562;8.022;2023-04-30T00:06:42;20.37;;;14.50;;
5821;SDS011;2937;48.562;8.022;2023-04-30T00:11:34;26.17;;;15.90;;
5821;SDS011;2937;48.562;8.022;2023-04-30T00:16:28;25.50;;;16.00;;
5821;SDS011;2937;48.562;8.022;2023-04-30T00:21:21;23.20;;;16.90;;
5821;SDS011;2937;48.562;8.022;2023-04-30T00:26:14;24.53;;;16.30;;
5821;SDS011;2937;48.562;8.022;2023-04-30T00:31:10;28.37;;;19.00;;
5821;SDS011;2937;48.562;8.022;2023-04-30T00:36:05;27.43;;;18.43;;
5821;SDS011;2937;48.562;8.022;2023-04-30T00:40:57;27.20;;;18.60;;
5821;SDS011;2937;48.562;8.022;2023-04-30T00:45:50;30.80;;;18.70;;
5821;SDS011;2937;48.562;8.022;2023-04-30T00:50:43;27.57;;;18.07;;
5821;SDS011;2937;48.562;8.022;2023-04-30T00:55:37;27.90;;;18.27;;
5821;SDS011;2937;48.562;8.022;2023-04-30T01:00:30;30.00;;;18.20;;
5821;SDS011;2937;48.562;8.022;2023-04-30T01:05:23;28.93;;;19.30;;
5821;SDS011;2937;48.562;8.022;2023-04-30T01:10:16;30.57;;;19.20;;
5821;SDS011;2937;48.562;8.022;2023-04-30T01:15:12;24.83;;;17.23;;
5821;SDS011;2937;48.562;8.022;2023-04-30T01:20:07;27.53;;;18.43;;
5821;SDS011;2937;48.562;8.022;2023-04-30T01:25:05;25.70;;;16.10;;
5821;SDS011;2937;48.562;8.022;2023-04-30T01:29:59;24.93;;;14.77;;
5821;SDS011;2937;48.562;8.022;2023-04-30T01:34:53;25.80;;;17.30;;
5821;SDS011;2937;48.562;8.022;2023-04-30T01:39:52;28.87;;;16.73;;
5821;SDS011;2937;48.562;8.022;2023-04-30T01:44:53;28.07;;;16.23;;
5821;SDS011;2937;48.562;8.022;2023-04-30T01:49:55;21.97;;;15.07;;
5821;SDS011;2937;48.562;8.022;2023-04-30T01:54:50;22.70;;;14.60;;
5821;SDS011;2937;48.562;8.022;2023-04-30T01:59:43;20.37;;;13.00;;
5821;SDS011;2937;48.562;8.022;2023-04-30T02:04:37;16.80;;;11.37;;
5821;SDS011;2937;48.562;8.022;2023-04-30T02:09:30;25.07;;;12.60;;
5821;SDS011;2937;48.562;8.022;2023-04-30T02:14:23;17.50;;;11.70;;
5821;SDS011;2937;48.562;8.022;2023-04-30T02:19:16;20.00;;;12.93;;
5821;SDS011;2937;48.562;8.022;2023-04-30T02:24:09;20.13;;;11.67;;
5821;SDS011;2937;48.562;8.022;2023-04-30T02:29:03;17.60;;;12.50;;
5821;SDS011;2937;48.562;8.022;2023-04-30T02:33:55;17.60;;;12.40;;
5821;SDS011;2937;48.562;8.022;2023-04-30T02:38:48;16.47;;;11.63;;
5821;SDS011;2937;48.562;8.022;2023-04-30T02:43:41;16.17;;;11.70;;
5821;SDS011;2937;48.562;8.022;2023-04-30T02:48:34;17.23;;;11.90;;
5821;SDS011;2937;48.562;8.022;2023-04-30T02:53:27;13.90;;;11.40;;
5821;SDS011;2937;48.562;8.022;2023-04-30T02:58:20;14.93;;;11.47;;
5821;SDS011;2937;48.562;8.022;2023-04-30T03:03:13;15.47;;;11.67;;
5821;SDS011;2937;48.562;8.022;2023-04-30T03:08:08;14.13;;;10.60;;
5821;SDS011;2937;48.562;8.022;2023-04-30T03:13:01;15.10;;;11.00;;
5821;SDS011;2937;48.562;8.022;2023-04-30T03:17:54;14.37;;;10.40;;
5821;SDS011;2937;48.562;8.022;2023-04-30T03:22:46;13.90;;;9.93;;
5821;SDS011;2937;48.562;8.022;2023-04-30T03:27:40;12.43;;;10.30;;
5821;SDS011;2937;48.562;8.022;2023-04-30T03:32:33;12.30;;;9.73;;
5821;SDS011;2937;48.562;8.022;2023-04-30T03:37:25;12.30;;;9.40;;
5821;SDS011;2937;48.562;8.022;2023-04-30T03:42:18;13.03;;;9.10;;
5821;SDS011;2937;48.562;8.022;2023-04-30T03:47:12;11.40;;;8.90;;
5821;SDS011;2937;48.562;8.022;2023-04-30T03:52:05;12.40;;;9.73;;
5821;SDS011;2937;48.562;8.022;2023-04-30T03:56:58;12.50;;;9.30;;
5821;SDS011;2937;48.562;8.022;2023-04-30T04:01:50;14.60;;;9.57;;
5821;SDS011;2937;48.562;8.022;2023-04-30T04:06:44;15.10;;;10.20;;
5821;SDS011;2937;48.562;8.022;2023-04-30T04:11:37;12.57;;;9.33;;
5821;SDS011;2937;48.562;8.022;2023-04-30T04:16:30;13.80;;;9.67;;
5821;SDS011;2937;48.562;8.022;2023-04-30T04:21:23;13.73;;;10.07;;
5821;SDS011;2937;48.562;8.022;2023-04-30T04:26:17;13.30;;;10.20;;
5821;SDS011;2937;48.562;8.022;2023-04-30T04:31:09;14.13;;;10.93;;
5821;SDS011;2937;48.562;8.022;2023-04-30T04:36:03;13.10;;;9.80;;
5821;SDS011;2937;48.562;8.022;2023-04-30T04:40:55;12.40;;;9.10;;
5821;SDS011;2937;48.562;8.022;2023-04-30T04:45:50;13.90;;;9.13;;
5821;SDS011;2937;48.562;8.022;2023-04-30T04:50:43;13.20;;;8.70;;
5821;SDS011;2937;48.562;8.022;2023-04-30T04:55:36;9.63;;;8.07;;
5821;SDS011;2937;48.562;8.022;2023-04-30T05:00:29;10.83;;;8.60;;
5821;SDS011;2937;48.562;8.022;2023-04-30T05:05:23;10.57;;;7.80;;
5821;SDS011;2937;48.562;8.022;2023-04-30T05:10:15;10.57;;;8.10;;
5821;SDS011;2937;48.562;8.022;2023-04-30T05:15:08;10.83;;;8.40;;
5821;SDS011;2937;48.562;8.022;2023-04-30T05:20:01;10.43;;;7.93;;
5821;SDS011;2937;48.562;8.022;2023-04-30T05:24:55;9.00;;;7.60;;
5821;SDS011;2937;48.562;8.022;2023-04-30T05:29:48;19.87;;;13.00;;
5821;SDS011;2937;48.562;8.022;2023-04-30T05:34:40;8.47;;;7.27;;
5821;SDS011;2937;48.562;8.022;2023-04-30T05:39:33;15.00;;;9.00;;
5821;SDS011;2937;48.562;8.022;2023-04-30T05:44:27;8.60;;;7.20;;
5821;SDS011;2937;48.562;8.022;2023-04-30T05:49:20;9.70;;;7.13;;
5821;SDS011;2937;48.562;8.022;2023-04-30T05:54:13;8.60;;;6.90;;
5821;SDS011;2937;48.562;8.022;2023-04-30T05:59:05;7.40;;;6.50;;
5821;SDS011;2937;48.562;8.022;2023-04-30T06:03:59;8.10;;;5.80;;
5821;SDS011;2937;48.562;8.022;2023-04-30T06:08:54;7.17;;;6.27;;
5821;SDS011;2937;48.562;8.022;2023-04-30T06:13:47;7.50;;;6.10;;
5821;SDS011;2937;48.562;8.022;2023-04-30T06:18:39;8.37;;;6.17;;
5821;SDS011;2937;48.562;8.022;2023-04-30T06:23:33;8.60;;;7.50;;
5821;SDS011;2937;48.562;8.022;2023-04-30T06:28:26;8.47;;;6.53;;
5821;SDS011;2937;48.562;8.022;2023-04-30T06:33:18;7.73;;;6.10;;
5821;SDS011;2937;48.562;8.022;2023-04-30T06:38:11;8.00;;;5.87;;
5821;SDS011;2937;48.562;8.022;2023-04-30T06:43:05;5.97;;;5.00;;
5821;SDS011;2937;48.562;8.022;2023-04-30T06:47:58;7.77;;;5.30;;
5821;SDS011;2937;48.562;8.022;2023-04-30T06:52:50;6.53;;;5.20;;
5821;SDS011;2937;48.562;8.022;2023-04-30T06:57:43;5.63;;;4.73;;
5821;SDS011;2937;48.562;8.022;2023-04-30T07:02:37;5.70;;;4.67;;
5821;SDS011;2937;48.562;8.022;2023-04-30T07:07:30;6.77;;;4.90;;
5821;SDS011;2937;48.562;8.022;2023-04-30T07:12:22;6.03;;;4.30;;
5821;SDS011;2937;48.562;8.022;2023-04-30T07:17:15;5.40;;;4.73;;
5821;SDS011;2937;48.562;8.022;2023-04-30T07:22:09;5.93;;;5.17;;
5821;SDS011;2937;48.562;8.022;2023-04-30T07:27:02;5.60;;;4.67;;
5821;SDS011;2937;48.562;8.022;2023-04-30T07:31:57;5.90;;;5.20;;
5821;SDS011;2937;48.562;8.022;2023-04-30T07:36:50;6.23;;;4.60;;
5821;SDS011;2937;48.562;8.022;2023-04-30T07:41:44;4.50;;;3.93;;
5821;SDS011;2937;48.562;8.022;2023-04-30T07:46:36;4.90;;;4.40;;
5821;SDS011;2937;48.562;8.022;2023-04-30T07:51:29;4.40;;;4.00;;
5821;SDS011;2937;48.562;8.022;2023-04-30T07:56:23;4.60;;;4.20;;
5821;SDS011;2937;48.562;8.022;2023-04-30T08:01:17;4.37;;;3.60;;
5821;SDS011;2937;48.562;8.022;2023-04-30T08:06:10;3.60;;;3.30;;
5821;SDS011;2937;48.562;8.022;2023-04-30T08:11:02;5.80;;;3.27;;
5821;SDS011;2937;48.562;8.022;2023-04-30T08:15:55;3.33;;;3.03;;
5821;SDS011;2937;48.562;8.022;2023-04-30T08:20:49;4.10;;;3.00;;
5821;SDS011;2937;48.562;8.022;2023-04-30T08:25:41;3.17;;;2.80;;
5821;SDS011;2937;48.562;8.022;2023-04-30T08:30:34;3.13;;;2.80;;
5821;SDS011;2937;48.562;8.022;2023-04-30T08:35:27;3.90;;;3.50;;
5821;SDS011;2937;48.562;8.022;2023-04-30T08:40:21;3.57;;;3.03;;
5821;SDS011;2937;48.562;8.022;2023-04-30T08:45:34;5.27;;;3.33;;
5821;SDS011;2937;48.562;8.022;2023-04-30T08:50:28;3.43;;;3.03;;
5821;SDS011;2937;48.562;8.022;2023-04-30T08:55:22;4.37;;;2.53;;
5821;SDS011;2937;48.562;8.022;2023-04-30T09:00:16;3.70;;;2.90;;
5821;SDS011;2937;48.562;8.022;2023-04-30T09:05:10;3.47;;;2.90;;
5821;SDS011;2937;48.562;8.022;2023-04-30T09:10:03;3.33;;;2.63;;
5821;SDS011;2937;48.562;8.022;2023-04-30T09:14:57;2.77;;;2.43;;
5821;SDS011;2937;48.562;8.022;2023-04-30T09:19:50;3.27;;;2.97;;
5821;SDS011;2937;48.562;8.022;2023-04-30T09:24:44;2.90;;;2.33;;
5821;SDS011;2937;48.562;8.022;2023-04-30T09:29:37;3.27;;;2.90;;
5821;SDS011;2937;48.562;8.022;2023-04-30T09:34:33;3.50;;;3.20;;
5821;SDS011;2937;48.562;8.022;2023-04-30T09:39:26;3.73;;;3.40;;
5821;SDS011;2937;48.562;8.022;2023-04-30T09:44:27;4.37;;;3.60;;
5821;SDS011;2937;48.562;8.022;2023-04-30T09:49:19;3.13;;;2.83;;
5821;SDS011;2937;48.562;8.022;2023-04-30T09:54:14;3.33;;;3.03;;
5821;SDS011;2937;48.562;8.022;2023-04-30T09:59:08;4.40;;;3.37;;
5821;SDS011;2937;48.562;8.022;2023-04-30T10:04:01;3.70;;;3.40;;
5821;SDS011;2937;48.562;8.022;2023-04-30T10:08:55;3.87;;;3.47;;
5821;SDS011;2937;48.562;8.022;2023-04-30T10:13:52;4.50;;;3.37;;
5821;SDS011;2937;48.562;8.022;2023-04-30T10:18:45;4.20;;;3.80;;
5821;SDS011;2937;48.562;8.022;2023-04-30T10:23:41;9.97;;;7.00;;
5821;SDS011;2937;48.562;8.022;2023-04-30T10:28:34;3.80;;;3.50;;
5821;SDS011;2937;48.562;8.022;2023-04-30T10:33:30;3.97;;;3.17;;
5821;SDS011;2937;48.562;8.022;2023-04-30T10:38:25;4.40;;;3.60;;
5821;SDS011;2937;48.562;8.022;2023-04-30T10:43:18;3.87;;;3.53;;
5821;SDS011;2937;48.562;8.022;2023-04-30T10:48:13;4.17;;;3.77;;
5821;SDS011;2937;48.562;8.022;2023-04-30T10:53:11;4.23;;;3.60;;
5821;SDS011;2937;48.562;8.022;2023-04-30T10:58:06;3.60;;;3.30;;
5821;SDS011;2937;48.562;8.022;2023-04-30T11:03:14;5.20;;;3.30;;
5821;SDS011;2937;48.562;8.022;2023-04-30T11:08:11;3.83;;;3.30;;
5821;SDS011;2937;48.562;8.022;2023-04-30T11:13:04;3.80;;;3.47;;
5821;SDS011;2937;48.562;8.022;2023-04-30T11:17:58;3.43;;;3.13;;
5821;SDS011;2937;48.562;8.022;2023-04-30T11:28:00;3.63;;;3.30;;
5821;SDS011;2937;48.562;8.022;2023-04-30T11:32:53;3.57;;;3.27;;
5821;SDS011;2937;48.562;8.022;2023-04-30T11:37:53;3.50;;;3.20;;
5821;SDS011;2937;48.562;8.022;2023-04-30T11:42:46;3.37;;;3.07;;
5821;SDS011;2937;48.562;8.022;2023-04-30T11:47:40;3.57;;;3.27;;
5821;SDS011;2937;48.562;8.022;2023-04-30T11:52:33;4.00;;;3.60;;
5821;SDS011;2937;48.562;8.022;2023-04-30T11:57:33;5.57;;;3.40;;
5821;SDS011;2937;48.562;8.022;2023-04-30T12:02:25;4.10;;;3.30;;
5821;SDS011;2937;48.562;8.022;2023-04-30T12:07:19;3.93;;;3.53;;
5821;SDS011;2937;48.562;8.022;2023-04-30T12:12:13;3.53;;;3.10;;
5821;SDS011;2937;48.562;8.022;2023-04-30T12:17:06;4.07;;;3.70;;
5821;SDS011;2937;48.562;8.022;2023-04-30T12:21:58;4.07;;;3.50;;
5821;SDS011;2937;48.562;8.022;2023-04-30T12:26:53;4.03;;;3.50;;
5821;SDS011;2937;48.562;8.022;2023-04-30T12:31:47;4.77;;;3.90;;
5821;SDS011;2937;48.562;8.022;2023-04-30T12:36:40;5.60;;;3.37;;
5821;SDS011;2937;48.562;8.022;2023-04-30T12:41:35;4.07;;;3.67;;
5821;SDS011;2937;48.562;8.022;2023-04-30T12:46:29;11.83;;;4.47;;
5821;SDS011;2937;48.562;8.022;2023-04-30T12:51:22;5.13;;;3.70;;
5821;SDS011;2937;48.562;8.022;2023-04-30T12:56:15;6.70;;;3.80;;
5821;SDS011;2937;48.562;8.022;2023-04-30T13:01:09;6.43;;;3.33;;
5821;SDS011;2937;48.562;8.022;2023-04-30T13:06:03;7.23;;;3.80;;
5821;SDS011;2937;48.562;8.022;2023-04-30T13:10:57;4.33;;;3.63;;
5821;SDS011;2937;48.562;8.022;2023-04-30T13:15:50;4.60;;;3.73;;
5821;SDS011;2937;48.562;8.022;2023-04-30T13:20:43;4.20;;;3.70;;
5821;SDS011;2937;48.562;8.022;2023-04-30T13:25:37;4.13;;;3.70;;
5821;SDS011;2937;48.562;8.022;2023-04-30T13:30:30;4.37;;;3.97;;
5821;SDS011;2937;48.562;8.022;2023-04-30T13:35:23;3.90;;;3.60;;
5821;SDS011;2937;48.562;8.022;2023-04-30T13:40:15;4.40;;;4.00;;
5821;SDS011;2937;48.562;8.022;2023-04-30T13:45:10;4.60;;;4.20;;
5821;SDS011;2937;48.562;8.022;2023-04-30T13:50:03;5.97;;;3.93;;
5821;SDS011;2937;48.562;8.022;2023-04-30T13:54:56;4.23;;;3.83;;
5821;SDS011;2937;48.562;8.022;2023-04-30T13:59:49;9.47;;;3.93;;
5821;SDS011;2937;48.562;8.022;2023-04-30T14:04:44;4.23;;;3.83;;
5821;SDS011;2937;48.562;8.022;2023-04-30T14:09:55;7.00;;;4.17;;
5821;SDS011;2937;48.562;8.022;2023-04-30T14:14:48;4.53;;;4.00;;
5821;SDS011;2937;48.562;8.022;2023-04-30T14:19:41;4.30;;;3.70;;
5821;SDS011;2937;48.562;8.022;2023-04-30T14:24:35;4.00;;;3.70;;
5821;SDS011;2937;48.562;8.022;2023-04-30T14:29:27;4.07;;;3.67;;
5821;SDS011;2937;48.562;8.022;2023-04-30T14:34:20;4.40;;;4.00;;
5821;SDS011;2937;48.562;8.022;2023-04-30T14:39:14;3.77;;;3.47;;
5821;SDS011;2937;48.562;8.022;2023-04-30T14:44:08;7.20;;;3.57;;
5821;SDS011;2937;48.562;8.022;2023-04-30T14:49:01;3.97;;;3.57;;
5821;SDS011;2937;48.562;8.022;2023-04-30T14:53:54;4.40;;;4.00;;
5821;SDS011;2937;48.562;8.022;2023-04-30T14:58:47;3.97;;;3.60;;
5821;SDS011;2937;48.562;8.022;2023-04-30T15:03:41;5.30;;;3.90;;
5821;SDS011;2937;48.562;8.022;2023-04-30T15:08:34;4.83;;;3.70;;
5821;SDS011;2937;48.562;8.022;2023-04-30T15:13:26;4.10;;;3.70;;
5821;SDS011;2937;48.562;8.022;2023-04-30T15:18:19;18.03;;;4.90;;
5821;SDS011;2937;48.562;8.022;2023-04-30T15:23:13;4.40;;;4.00;;
5821;SDS011;2937;48.562;8.022;2023-04-30T15:28:06;4.30;;;3.90;;
5821;SDS011;2937;48.562;8.022;2023-04-30T15:32:58;5.20;;;4.20;;
5821;SDS011;2937;48.562;8.022;2023-04-30T15:37:51;5.33;;;4.20;;
5821;SDS011;2937;48.562;8.022;2023-04-30T15:42:45;4.13;;;3.73;;
5821;SDS011;2937;48.562;8.022;2023-04-30T15:47:37;4.60;;;4.20;;
5821;SDS011;2937;48.562;8.022;2023-04-30T15:52:30;9.70;;;4.27;;
5821;SDS011;2937;48.562;8.022;2023-04-30T15:57:23;5.80;;;4.03;;
5821;SDS011;2937;48.562;8.022;2023-04-30T16:02:17;4.97;;;3.93;;
5821;SDS011;2937;48.562;8.022;2023-04-30T16:07:10;5.37;;;4.13;;
5821;SDS011;2937;48.562;8.022;2023-04-30T16:12:03;4.30;;;3.70;;
5821;SDS011;2937;48.562;8.022;2023-04-30T16:16:56;4.30;;;3.90;;
5821;SDS011;2937;48.562;8.022;2023-04-30T16:21:50;4.20;;;3.80;;
5821;SDS011;2937;48.562;8.022;2023-04-30T16:26:43;6.67;;;5.20;;
5821;SDS011;2937;48.562;8.022;2023-04-30T16:31:35;7.80;;;4.20;;
5821;SDS011;2937;48.562;8.022;2023-04-30T16:36:28;8.07;;;4.10;;
5821;SDS011;2937;48.562;8.022;2023-04-30T16:41:22;7.10;;;4.00;;
5821;SDS011;2937;48.562;8.022;2023-04-30T16:46:15;6.00;;;4.10;;
5821;SDS011;2937;48.562;8.022;2023-04-30T16:51:08;13.60;;;4.60;;
5821;SDS011;2937;48.562;8.022;2023-04-30T16:56:01;6.00;;;4.53;;
5821;SDS011;2937;48.562;8.022;2023-04-30T17:00:55;5.10;;;4.33;;
5821;SDS011;2937;48.562;8.022;2023-04-30T17:05:48;12.30;;;5.37;;
5821;SDS011;2937;48.562;8.022;2023-04-30T17:10:41;29.83;;;4.67;;
5821;SDS011;2937;48.562;8.022;2023-04-30T17:15:33;5.03;;;4.53;;
5821;SDS011;2937;48.562;8.022;2023-04-30T17:20:28;45.53;;;4.97;;
5821;SDS011;2937;48.562;8.022;2023-04-30T17:25:20;4.83;;;4.33;;
5821;SDS011;2937;48.562;8.022;2023-04-30T17:30:13;6.33;;;4.80;;
5821;SDS011;2937;48.562;8.022;2023-04-30T17:35:06;11.70;;;4.63;;
5821;SDS011;2937;48.562;8.022;2023-04-30T17:40:00;5.13;;;4.43;;
5821;SDS011;2937;48.562;8.022;2023-04-30T17:44:53;5.03;;;4.40;;
5821;SDS011;2937;48.562;8.022;2023-04-30T17:49:46;6.03;;;4.43;;
5821;SDS011;2937;48.562;8.022;2023-04-30T17:54:38;7.20;;;4.60;;
5821;SDS011;2937;48.562;8.022;2023-04-30T17:59:32;6.10;;;4.53;;
5821;SDS011;2937;48.562;8.022;2023-04-30T18:04:25;4.57;;;4.17;;
5821;SDS011;2937;48.562;8.022;2023-04-30T18:09:17;7.03;;;4.80;;
5821;SDS011;2937;48.562;8.022;2023-04-30T18:14:10;4.67;;;4.17;;
5821;SDS011;2937;48.562;8.022;2023-04-30T18:19:04;5.00;;;4.47;;
5821;SDS011;2937;48.562;8.022;2023-04-30T18:23:57;4.80;;;4.33;;
5821;SDS011;2937;48.562;8.022;2023-04-30T18:28:49;5.60;;;4.73;;
5821;SDS011;2937;48.562;8.022;2023-04-30T18:33:42;4.83;;;4.33;;
5821;SDS011;2937;48.562;8.022;2023-04-30T18:38:36;5.27;;;4.47;;
5821;SDS011;2937;48.562;8.022;2023-04-30T18:43:29;7.33;;;6.50;;
5821;SDS011;2937;48.562;8.022;2023-04-30T18:48:21;7.80;;;6.47;;
5821;SDS011;2937;48.562;8.022;2023-04-30T18:53:14;6.30;;;5.50;;
5821;SDS011;2937;48.562;8.022;2023-04-30T18:58:08;6.63;;;5.27;;
5821;SDS011;2937;48.562;8.022;2023-04-30T19:03:01;7.53;;;5.53;;
5821;SDS011;2937;48.562;8.022;2023-04-30T19:07:54;7.80;;;6.17;;
5821;SDS011;2937;48.562;8.022;2023-04-30T19:12:46;7.37;;;6.60;;
5821;SDS011;2937;48.562;8.022;2023-04-30T19:17:41;8.27;;;6.60;;
5821;SDS011;2937;48.562;8.022;2023-04-30T19:22:33;8.27;;;6.20;;
5821;SDS011;2937;48.562;8.022;2023-04-30T19:27:26;6.63;;;5.93;;
5821;SDS011;2937;48.562;8.022;2023-04-30T19:32:19;8.10;;;5.70;;
5821;SDS011;2937;48.562;8.022;2023-04-30T19:37:13;7.20;;;5.90;;
5821;SDS011;2937;48.562;8.022;2023-04-30T19:42:06;10.43;;;6.10;;
5821;SDS011;2937;48.562;8.022;2023-04-30T19:46:58;6.60;;;5.20;;
5821;SDS011;2937;48.562;8.022;2023-04-30T19:51:51;5.90;;;5.27;;
5821;SDS011;2937;48.562;8.022;2023-04-30T19:56:45;7.20;;;5.43;;
5821;SDS011;2937;48.562;8.022;2023-04-30T20:01:38;7.30;;;5.50;;
5821;SDS011;2937;48.562;8.022;2023-04-30T20:06:32;5.67;;;4.77;;
5821;SDS011;2937;48.562;8.022;2023-04-30T20:11:25;6.50;;;4.90;;
5821;SDS011;2937;48.562;8.022;2023-04-30T20:16:19;5.80;;;5.27;;
5821;SDS011;2937;48.562;8.022;2023-04-30T20:21:12;6.00;;;4.97;;
5821;SDS011;2937;48.562;8.022;2023-04-30T20:26:05;5.40;;;4.90;;
5821;SDS011;2937;48.562;8.022;2023-04-30T20:30:58;7.03;;;5.50;;
5821;SDS011;2937;48.562;8.022;2023-04-30T20:35:53;6.77;;;5.70;;
5821;SDS011;2937;48.562;8.022;2023-04-30T20:40:45;5.73;;;5.20;;
5821;SDS011;2937;48.562;8.022;2023-04-30T20:45:38;5.43;;;4.63;;
5821;SDS011;2937;48.562;8.022;2023-04-30T20:50:32;8.67;;;4.87;;
5821;SDS011;2937;48.562;8.022;2023-04-30T20:55:27;5.20;;;4.70;;
5821;SDS011;2937;48.562;8.022;2023-04-30T21:00:20;7.77;;;5.70;;
5821;SDS011;2937;48.562;8.022;2023-04-30T21:05:13;7.50;;;5.70;;
5821;SDS011;2937;48.562;8.022;2023-04-30T21:10:06;9.03;;;5.87;;
5821;SDS011;2937;48.562;8.022;2023-04-30T21:15:01;7.60;;;6.50;;
5821;SDS011;2937;48.562;8.022;2023-04-30T21:19:54;6.90;;;6.20;;
5821;SDS011;2937;48.562;8.022;2023-04-30T21:24:50;9.00;;;6.63;;
5821;SDS011;2937;48.562;8.022;2023-04-30T21:29:42;7.00;;;6.30;;
5821;SDS011;2937;48.562;8.022;2023-04-30T21:34:36;7.37;;;6.30;;
5821;SDS011;2937;48.562;8.022;2023-04-30T21:39:29;7.80;;;6.97;;
5821;SDS011;2937;48.562;8.022;2023-04-30T21:44:22;11.10;;;6.67;;
5821;SDS011;2937;48.562;8.022;2023-04-30T21:49:14;9.70;;;7.33;;
5821;SDS011;2937;48.562;8.022;2023-04-30T21:54:09;11.00;;;7.00;;
5821;SDS011;2937;48.562;8.022;2023-04-30T21:59:02;9.83;;;7.80;;
5821;SDS011;2937;48.562;8.022;2023-04-30T22:03:54;8.27;;;7.00;;
5821;SDS011;2937;48.562;8.022;2023-04-30T22:08:47;10.70;;;7.33;;
5821;SDS011;2937;48.562;8.022;2023-04-30T22:13:41;10.43;;;7.90;;
5821;SDS011;2937;48.562;8.022;2023-04-30T22:18:33;10.40;;;8.53;;
5821;SDS011;2937;48.562;8.022;2023-04-30T22:23:26;9.27;;;7.40;;
5821;SDS011;2937;48.562;8.022;2023-04-30T22:28:19;10.30;;;8.63;;
5821;SDS011;2937;48.562;8.022;2023-04-30T22:33:14;8.37;;;6.80;;
5821;SDS011;2937;48.562;8.022;2023-04-30T22:38:07;9.30;;;8.03;;
5821;SDS011;2937;48.562;8.022;2023-04-30T22:43:01;9.10;;;7.60;;
5821;SDS011;2937;48.562;8.022;2023-04-30T22:47:55;8.77;;;7.53;;
5821;SDS011;2937;48.562;8.022;2023-04-30T22:52:53;11.00;;;8.30;;
5821;SDS011;2937;48.562;8.022;2023-04-30T22:57:46;12.13;;;8.60;;
5821;SDS011;2937;48.562;8.022;2023-04-30T23:02:39;10.83;;;9.10;;
5821;SDS011;2937;48.562;8.022;2023-04-30T23:07:34;11.17;;;9.33;;
5821;SDS011;2937;48.562;8.022;2023-04-30T23:12:27;10.50;;;8.20;;
5821;SDS011;2937;48.562;8.022;2023-04-30T23:17:20;11.33;;;9.07;;
5821;SDS011;2937;48.562;8.022;2023-04-30T23:22:13;11.80;;;9.80;;
5821;SDS011;2937;48.562;8.022;2023-04-30T23:27:07;10.83;;;9.20;;
5821;SDS011;2937;48.562;8.022;2023-04-30T23:32:01;12.27;;;9.77;;
5821;SDS011;2937;48.562;8.022;2023-04-30T23:36:54;13.27;;;10.83;;
5821;SDS011;2937;48.562;8.022;2023-04-30T23:41:47;13.37;;;10.23;;
5821;SDS011;2937;48.562;8.022;2023-04-30T23:46:39;18.80;;;10.40;;
5821;SDS011;2937;48.562;8.022;2023-04-30T23:51:34;17.70;;;10.60;;
5821;SDS011;2937;48.562;8.022;2023-04-30T23:56:27;14.37;;;10.07;;
